sensor_id;sensor_type;location;lat;lon;timestamp;P1;durP1;ratioP1;P2;durP2;ratioP2
23628;SDS011;11991;57.150;-2.134;2023-09-07T00:01:19;2.95;;;2.55;;
23628;SDS011;11991;57.150;-2.134;2023-09-07T00:03:46;2.83;;;2.53;;
23628;SDS011;11991;57.150;-2.134;2023-09-07T00:06:13;3.03;;;2.72;;
23628;SDS011;11991;57.150;-2.134;2023-09-07T00:08:40;3.30;;;2.75;;
23628;SDS011;11991;57.150;-2.134;2023-09-07T00:11:08;3.47;;;2.75;;
23628;SDS011;11991;57.150;-2.134;2023-09-07T00:13:38;3.55;;;3.05;;
23628;SDS011;11991;57.150;-2.134;2023-09-07T00:16:06;2.85;;;2.60;;
23628;SDS011;11991;57.150;-2.134;2023-09-07T00:18:34;4.65;;;3.28;;
23628;SDS011;11991;57.150;-2.134;2023-09-07T00:21:01;4.07;;;3.67;;
23628;SDS011;11991;57.150;-2.134;2023-09-07T00:23:29;7.60;;;6.32;;
23628;SDS011;11991;57.150;-2.134;2023-09-07T00:25:57;6.18;;;5.28;;
23628;SDS011;11991;57.150;-2.134;2023-09-07T00:28:24;4.93;;;4.32;;
23628;SDS011;11991;57.150;-2.134;2023-09-07T00:30:51;3.28;;;2.97;;
23628;SDS011;11991;57.150;-2.134;2023-09-07T00:33:19;3.58;;;2.92;;
23628;SDS011;11991;57.150;-2.134;2023-09-07T00:35:46;3.22;;;2.92;;
23628;SDS011;11991;57.150;-2.134;2023-09-07T00:38:13;3.95;;;3.22;;
23628;SDS011;11991;57.150;-2.134;2023-09-07T00:40:44;2.85;;;2.55;;
23628;SDS011;11991;57.150;-2.134;2023-09-07T00:43:11;3.28;;;2.97;;
23628;SDS011;11991;57.150;-2.134;2023-09-07T00:45:39;4.65;;;3.92;;
23628;SDS011;11991;57.150;-2.134;2023-09-07T00:48:07;3.45;;;3.05;;
23628;SDS011;11991;57.150;-2.134;2023-09-07T00:50:34;3.47;;;3.17;;
23628;SDS011;11991;57.150;-2.134;2023-09-07T00:53:02;2.80;;;2.60;;
23628;SDS011;11991;57.150;-2.134;2023-09-07T00:55:30;4.47;;;4.05;;
23628;SDS011;11991;57.150;-2.134;2023-09-07T00:58:00;4.80;;;3.92;;
23628;SDS011;11991;57.150;-2.134;2023-09-07T01:00:28;3.47;;;3.15;;
23628;SDS011;11991;57.150;-2.134;2023-09-07T01:02:56;3.80;;;3.33;;
23628;SDS011;11991;57.150;-2.134;2023-09-07T01:05:27;4.05;;;3.60;;
23628;SDS011;11991;57.150;-2.134;2023-09-07T01:08:03;5.00;;;4.15;;
23628;SDS011;11991;57.150;-2.134;2023-09-07T01:10:43;4.35;;;3.90;;
23628;SDS011;11991;57.150;-2.134;2023-09-07T01:13:11;4.97;;;4.47;;
23628;SDS011;11991;57.150;-2.134;2023-09-07T01:15:38;6.50;;;5.10;;
23628;SDS011;11991;57.150;-2.134;2023-09-07T01:18:05;5.20;;;4.53;;
23628;SDS011;11991;57.150;-2.134;2023-09-07T01:20:50;3.67;;;3.30;;
23628;SDS011;11991;57.150;-2.134;2023-09-07T01:23:19;3.47;;;3.17;;
23628;SDS011;11991;57.150;-2.134;2023-09-07T01:25:47;3.80;;;2.90;;
23628;SDS011;11991;57.150;-2.134;2023-09-07T01:28:15;3.00;;;2.70;;
23628;SDS011;11991;57.150;-2.134;2023-09-07T01:30:42;3.10;;;2.80;;
23628;SDS011;11991;57.150;-2.134;2023-09-07T01:33:11;3.17;;;2.88;;
23628;SDS011;11991;57.150;-2.134;2023-09-07T01:35:38;3.20;;;2.90;;
23628;SDS011;11991;57.150;-2.134;2023-09-07T01:38:08;3.47;;;2.97;;
23628;SDS011;11991;57.150;-2.134;2023-09-07T01:40:35;5.25;;;3.78;;
23628;SDS011;11991;57.150;-2.134;2023-09-07T01:43:02;4.68;;;4.05;;
23628;SDS011;11991;57.150;-2.134;2023-09-07T01:45:29;4.40;;;3.40;;
23628;SDS011;11991;57.150;-2.134;2023-09-07T01:47:57;4.75;;;4.00;;
23628;SDS011;11991;57.150;-2.134;2023-09-07T01:50:25;3.72;;;3.22;;
23628;SDS011;11991;57.150;-2.134;2023-09-07T01:52:53;4.10;;;3.45;;
23628;SDS011;11991;57.150;-2.134;2023-09-07T01:55:20;5.05;;;3.20;;
23628;SDS011;11991;57.150;-2.134;2023-09-07T01:57:47;2.70;;;2.35;;
23628;SDS011;11991;57.150;-2.134;2023-09-07T02:00:14;2.53;;;2.33;;
23628;SDS011;11991;57.150;-2.134;2023-09-07T02:02:41;3.45;;;3.15;;
23628;SDS011;11991;57.150;-2.134;2023-09-07T02:05:09;2.60;;;2.28;;
23628;SDS011;11991;57.150;-2.134;2023-09-07T02:07:36;3.90;;;3.50;;
23628;SDS011;11991;57.150;-2.134;2023-09-07T02:10:04;2.90;;;2.60;;
23628;SDS011;11991;57.150;-2.134;2023-09-07T02:12:32;3.28;;;2.97;;
23628;SDS011;11991;57.150;-2.134;2023-09-07T02:15:00;3.28;;;2.50;;
23628;SDS011;11991;57.150;-2.134;2023-09-07T02:17:29;3.58;;;2.50;;
23628;SDS011;11991;57.150;-2.134;2023-09-07T02:19:56;2.38;;;2.17;;
23628;SDS011;11991;57.150;-2.134;2023-09-07T02:22:25;2.70;;;2.50;;
23628;SDS011;11991;57.150;-2.134;2023-09-07T02:24:52;3.42;;;2.67;;
23628;SDS011;11991;57.150;-2.134;2023-09-07T02:27:19;2.83;;;2.63;;
23628;SDS011;11991;57.150;-2.134;2023-09-07T02:29:46;2.65;;;2.42;;
23628;SDS011;11991;57.150;-2.134;2023-09-07T02:32:13;3.33;;;3.03;;
23628;SDS011;11991;57.150;-2.134;2023-09-07T02:34:41;4.03;;;3.53;;
23628;SDS011;11991;57.150;-2.134;2023-09-07T02:37:09;3.17;;;2.88;;
23628;SDS011;11991;57.150;-2.134;2023-09-07T02:39:36;3.63;;;3.17;;
23628;SDS011;11991;57.150;-2.134;2023-09-07T02:42:03;3.30;;;3.00;;
23628;SDS011;11991;57.150;-2.134;2023-09-07T02:44:31;3.30;;;2.70;;
23628;SDS011;11991;57.150;-2.134;2023-09-07T02:46:59;3.30;;;2.90;;
23628;SDS011;11991;57.150;-2.134;2023-09-07T02:49:27;3.00;;;2.70;;
23628;SDS011;11991;57.150;-2.134;2023-09-07T02:51:54;3.60;;;2.95;;
23628;SDS011;11991;57.150;-2.134;2023-09-07T02:54:22;3.53;;;3.17;;
23628;SDS011;11991;57.150;-2.134;2023-09-07T02:56:50;2.35;;;2.15;;
23628;SDS011;11991;57.150;-2.134;2023-09-07T02:59:18;3.00;;;2.70;;
23628;SDS011;11991;57.150;-2.134;2023-09-07T03:01:47;3.30;;;3.00;;
23628;SDS011;11991;57.150;-2.134;2023-09-07T03:04:14;2.88;;;2.20;;
23628;SDS011;11991;57.150;-2.134;2023-09-07T03:06:41;2.35;;;2.15;;
23628;SDS011;11991;57.150;-2.134;2023-09-07T03:09:08;2.78;;;2.40;;
23628;SDS011;11991;57.150;-2.134;2023-09-07T03:11:37;3.72;;;2.78;;
23628;SDS011;11991;57.150;-2.134;2023-09-07T03:14:04;3.47;;;2.97;;
23628;SDS011;11991;57.150;-2.134;2023-09-07T03:16:31;4.28;;;2.88;;
23628;SDS011;11991;57.150;-2.134;2023-09-07T03:18:58;2.67;;;2.47;;
23628;SDS011;11991;57.150;-2.134;2023-09-07T03:21:25;3.05;;;2.85;;
23628;SDS011;11991;57.150;-2.134;2023-09-07T03:23:56;3.65;;;2.75;;
23628;SDS011;11991;57.150;-2.134;2023-09-07T03:26:24;3.30;;;3.00;;
23628;SDS011;11991;57.150;-2.134;2023-09-07T03:28:52;2.80;;;2.50;;
23628;SDS011;11991;57.150;-2.134;2023-09-07T03:31:19;2.60;;;2.40;;
23628;SDS011;11991;57.150;-2.134;2023-09-07T03:33:47;2.35;;;1.88;;
23628;SDS011;11991;57.150;-2.134;2023-09-07T03:36:15;2.70;;;2.42;;
23628;SDS011;11991;57.150;-2.134;2023-09-07T03:38:42;2.95;;;2.58;;
23628;SDS011;11991;57.150;-2.134;2023-09-07T03:41:11;2.42;;;2.15;;
23628;SDS011;11991;57.150;-2.134;2023-09-07T03:43:38;2.67;;;2.08;;
23628;SDS011;11991;57.150;-2.134;2023-09-07T03:46:06;2.33;;;2.13;;
23628;SDS011;11991;57.150;-2.134;2023-09-07T03:48:35;2.85;;;2.58;;
23628;SDS011;11991;57.150;-2.134;2023-09-07T03:51:07;3.33;;;2.92;;
23628;SDS011;11991;57.150;-2.134;2023-09-07T03:53:34;3.30;;;3.00;;
23628;SDS011;11991;57.150;-2.134;2023-09-07T03:56:01;3.08;;;2.78;;
23628;SDS011;11991;57.150;-2.134;2023-09-07T03:58:31;2.50;;;2.30;;
23628;SDS011;11991;57.150;-2.134;2023-09-07T04:00:59;3.72;;;3.33;;
23628;SDS011;11991;57.150;-2.134;2023-09-07T04:03:27;2.88;;;2.55;;
23628;SDS011;11991;57.150;-2.134;2023-09-07T04:05:55;2.72;;;2.53;;
23628;SDS011;11991;57.150;-2.134;2023-09-07T04:08:22;2.92;;;2.42;;
23628;SDS011;11991;57.150;-2.134;2023-09-07T04:10:49;2.42;;;2.22;;
23628;SDS011;11991;57.150;-2.134;2023-09-07T04:13:17;3.00;;;2.70;;
23628;SDS011;11991;57.150;-2.134;2023-09-07T04:15:44;2.67;;;2.47;;
23628;SDS011;11991;57.150;-2.134;2023-09-07T04:18:14;4.35;;;3.60;;
23628;SDS011;11991;57.150;-2.134;2023-09-07T04:20:45;3.33;;;3.00;;
23628;SDS011;11991;57.150;-2.134;2023-09-07T04:23:13;3.33;;;2.70;;
23628;SDS011;11991;57.150;-2.134;2023-09-07T04:25:41;3.03;;;2.72;;
23628;SDS011;11991;57.150;-2.134;2023-09-07T04:28:08;3.25;;;2.95;;
23628;SDS011;11991;57.150;-2.134;2023-09-07T04:30:39;3.10;;;2.80;;
23628;SDS011;11991;57.150;-2.134;2023-09-07T04:33:08;4.65;;;3.70;;
23628;SDS011;11991;57.150;-2.134;2023-09-07T04:35:37;3.10;;;2.30;;
23628;SDS011;11991;57.150;-2.134;2023-09-07T04:38:06;2.90;;;2.70;;
23628;SDS011;11991;57.150;-2.134;2023-09-07T04:40:33;2.97;;;2.72;;
23628;SDS011;11991;57.150;-2.134;2023-09-07T04:43:00;2.55;;;2.35;;
23628;SDS011;11991;57.150;-2.134;2023-09-07T04:45:27;2.90;;;2.60;;
23628;SDS011;11991;57.150;-2.134;2023-09-07T04:47:54;2.83;;;2.22;;
23628;SDS011;11991;57.150;-2.134;2023-09-07T04:50:22;2.58;;;2.38;;
23628;SDS011;11991;57.150;-2.134;2023-09-07T04:52:49;2.95;;;2.65;;
23628;SDS011;11991;57.150;-2.134;2023-09-07T04:55:16;3.15;;;2.85;;
23628;SDS011;11991;57.150;-2.134;2023-09-07T04:57:43;3.90;;;3.00;;
23628;SDS011;11991;57.150;-2.134;2023-09-07T05:00:10;4.05;;;2.85;;
23628;SDS011;11991;57.150;-2.134;2023-09-07T05:02:38;2.75;;;2.50;;
23628;SDS011;11991;57.150;-2.134;2023-09-07T05:05:08;3.10;;;2.80;;
23628;SDS011;11991;57.150;-2.134;2023-09-07T05:07:36;2.60;;;2.40;;
23628;SDS011;11991;57.150;-2.134;2023-09-07T05:10:03;3.40;;;3.10;;
23628;SDS011;11991;57.150;-2.134;2023-09-07T05:12:33;3.40;;;3.10;;
23628;SDS011;11991;57.150;-2.134;2023-09-07T05:15:01;3.03;;;2.70;;
23628;SDS011;11991;57.150;-2.134;2023-09-07T05:17:28;3.05;;;2.75;;
23628;SDS011;11991;57.150;-2.134;2023-09-07T05:19:55;3.38;;;2.70;;
23628;SDS011;11991;57.150;-2.134;2023-09-07T05:22:22;2.83;;;2.60;;
23628;SDS011;11991;57.150;-2.134;2023-09-07T05:24:49;2.95;;;2.70;;
23628;SDS011;11991;57.150;-2.134;2023-09-07T05:27:16;3.38;;;2.85;;
23628;SDS011;11991;57.150;-2.134;2023-09-07T05:29:44;3.22;;;2.70;;
23628;SDS011;11991;57.150;-2.134;2023-09-07T05:32:12;3.63;;;2.83;;
23628;SDS011;11991;57.150;-2.134;2023-09-07T05:34:39;3.35;;;3.05;;
23628;SDS011;11991;57.150;-2.134;2023-09-07T05:37:07;3.15;;;2.85;;
23628;SDS011;11991;57.150;-2.134;2023-09-07T05:39:34;4.55;;;3.10;;
23628;SDS011;11991;57.150;-2.134;2023-09-07T05:42:01;3.00;;;2.70;;
23628;SDS011;11991;57.150;-2.134;2023-09-07T05:44:29;3.42;;;3.13;;
23628;SDS011;11991;57.150;-2.134;2023-09-07T05:46:56;3.85;;;3.33;;
23628;SDS011;11991;57.150;-2.134;2023-09-07T05:49:25;2.78;;;2.53;;
23628;SDS011;11991;57.150;-2.134;2023-09-07T05:51:53;2.83;;;2.53;;
23628;SDS011;11991;57.150;-2.134;2023-09-07T05:54:20;3.25;;;2.80;;
23628;SDS011;11991;57.150;-2.134;2023-09-07T05:56:47;2.60;;;2.40;;
23628;SDS011;11991;57.150;-2.134;2023-09-07T05:59:14;3.15;;;2.78;;
23628;SDS011;11991;57.150;-2.134;2023-09-07T06:01:42;3.28;;;2.95;;
23628;SDS011;11991;57.150;-2.134;2023-09-07T06:04:09;4.15;;;3.08;;
23628;SDS011;11991;57.150;-2.134;2023-09-07T06:06:37;3.15;;;2.85;;
23628;SDS011;11991;57.150;-2.134;2023-09-07T06:09:04;3.58;;;2.88;;
23628;SDS011;11991;57.150;-2.134;2023-09-07T06:11:31;2.88;;;2.45;;
23628;SDS011;11991;57.150;-2.134;2023-09-07T06:14:00;2.63;;;2.42;;
23628;SDS011;11991;57.150;-2.134;2023-09-07T06:16:27;3.83;;;3.10;;
23628;SDS011;11991;57.150;-2.134;2023-09-07T06:18:55;2.47;;;2.22;;
23628;SDS011;11991;57.150;-2.134;2023-09-07T06:21:22;3.05;;;2.40;;
23628;SDS011;11991;57.150;-2.134;2023-09-07T06:23:49;3.80;;;3.33;;
23628;SDS011;11991;57.150;-2.134;2023-09-07T06:26:16;4.05;;;3.53;;
23628;SDS011;11991;57.150;-2.134;2023-09-07T06:28:44;2.70;;;2.50;;
23628;SDS011;11991;57.150;-2.134;2023-09-07T06:31:12;3.92;;;3.53;;
23628;SDS011;11991;57.150;-2.134;2023-09-07T06:33:43;3.97;;;3.58;;
23628;SDS011;11991;57.150;-2.134;2023-09-07T06:36:10;4.38;;;3.65;;
23628;SDS011;11991;57.150;-2.134;2023-09-07T06:38:37;3.25;;;2.95;;
23628;SDS011;11991;57.150;-2.134;2023-09-07T06:41:04;3.97;;;3.58;;
23628;SDS011;11991;57.150;-2.134;2023-09-07T06:43:34;4.22;;;3.83;;
23628;SDS011;11991;57.150;-2.134;2023-09-07T06:46:05;3.22;;;2.97;;
23628;SDS011;11991;57.150;-2.134;2023-09-07T06:48:37;3.28;;;2.63;;
23628;SDS011;11991;57.150;-2.134;2023-09-07T06:51:05;3.60;;;3.30;;
23628;SDS011;11991;57.150;-2.134;2023-09-07T06:53:33;4.20;;;3.10;;
23628;SDS011;11991;57.150;-2.134;2023-09-07T06:56:20;3.35;;;3.05;;
23628;SDS011;11991;57.150;-2.134;2023-09-07T06:58:48;3.15;;;2.80;;
23628;SDS011;11991;57.150;-2.134;2023-09-07T07:01:15;4.18;;;2.50;;
23628;SDS011;11991;57.150;-2.134;2023-09-07T07:03:42;2.60;;;2.40;;
23628;SDS011;11991;57.150;-2.134;2023-09-07T07:06:10;3.10;;;2.72;;
23628;SDS011;11991;57.150;-2.134;2023-09-07T07:08:38;2.80;;;2.60;;
23628;SDS011;11991;57.150;-2.134;2023-09-07T07:11:05;3.00;;;2.70;;
23628;SDS011;11991;57.150;-2.134;2023-09-07T07:13:33;3.20;;;2.58;;
23628;SDS011;11991;57.150;-2.134;2023-09-07T07:16:00;3.22;;;2.90;;
23628;SDS011;11991;57.150;-2.134;2023-09-07T07:18:28;3.45;;;3.15;;
23628;SDS011;11991;57.150;-2.134;2023-09-07T07:20:56;3.45;;;3.15;;
23628;SDS011;11991;57.150;-2.134;2023-09-07T07:23:24;3.92;;;3.42;;
23628;SDS011;11991;57.150;-2.134;2023-09-07T07:25:51;3.10;;;2.80;;
23628;SDS011;11991;57.150;-2.134;2023-09-07T07:28:19;2.95;;;2.67;;
23628;SDS011;11991;57.150;-2.134;2023-09-07T07:30:47;4.30;;;3.00;;
23628;SDS011;11991;57.150;-2.134;2023-09-07T07:33:15;3.15;;;2.85;;
23628;SDS011;11991;57.150;-2.134;2023-09-07T07:35:43;3.47;;;3.05;;
23628;SDS011;11991;57.150;-2.134;2023-09-07T07:38:11;2.92;;;2.70;;
23628;SDS011;11991;57.150;-2.134;2023-09-07T07:40:40;3.60;;;2.83;;
23628;SDS011;11991;57.150;-2.134;2023-09-07T07:43:09;3.00;;;2.78;;
23628;SDS011;11991;57.150;-2.134;2023-09-07T07:45:37;3.28;;;2.97;;
23628;SDS011;11991;57.150;-2.134;2023-09-07T07:48:06;3.75;;;2.97;;
23628;SDS011;11991;57.150;-2.134;2023-09-07T07:50:37;6.07;;;2.55;;
23628;SDS011;11991;57.150;-2.134;2023-09-07T07:53:10;4.07;;;3.28;;
23628;SDS011;11991;57.150;-2.134;2023-09-07T07:55:39;4.00;;;3.47;;
23628;SDS011;11991;57.150;-2.134;2023-09-07T07:58:11;3.00;;;2.67;;
23628;SDS011;11991;57.150;-2.134;2023-09-07T08:00:40;2.72;;;2.53;;
23628;SDS011;11991;57.150;-2.134;2023-09-07T08:03:07;3.33;;;3.03;;
23628;SDS011;11991;57.150;-2.134;2023-09-07T08:05:36;3.70;;;3.38;;
23628;SDS011;11991;57.150;-2.134;2023-09-07T08:08:07;3.42;;;3.13;;
23628;SDS011;11991;57.150;-2.134;2023-09-07T08:10:35;3.30;;;3.00;;
23628;SDS011;11991;57.150;-2.134;2023-09-07T08:13:05;3.90;;;3.38;;
23628;SDS011;11991;57.150;-2.134;2023-09-07T08:15:32;3.60;;;3.17;;
23628;SDS011;11991;57.150;-2.134;2023-09-07T08:18:01;3.20;;;2.90;;
23628;SDS011;11991;57.150;-2.134;2023-09-07T08:20:31;3.80;;;3.40;;
23628;SDS011;11991;57.150;-2.134;2023-09-07T08:22:59;3.70;;;3.28;;
23628;SDS011;11991;57.150;-2.134;2023-09-07T08:25:30;4.05;;;3.45;;
23628;SDS011;11991;57.150;-2.134;2023-09-07T08:27:58;3.22;;;2.88;;
23628;SDS011;11991;57.150;-2.134;2023-09-07T08:30:26;3.70;;;3.40;;
23628;SDS011;11991;57.150;-2.134;2023-09-07T08:32:53;4.05;;;3.65;;
23628;SDS011;11991;57.150;-2.134;2023-09-07T08:35:22;3.30;;;3.00;;
23628;SDS011;11991;57.150;-2.134;2023-09-07T08:37:56;3.67;;;3.15;;
23628;SDS011;11991;57.150;-2.134;2023-09-07T08:40:27;3.22;;;2.92;;
23628;SDS011;11991;57.150;-2.134;2023-09-07T08:42:56;2.47;;;2.28;;
23628;SDS011;11991;57.150;-2.134;2023-09-07T08:45:23;3.20;;;2.90;;
23628;SDS011;11991;57.150;-2.134;2023-09-07T08:47:56;3.85;;;3.45;;
23628;SDS011;11991;57.150;-2.134;2023-09-07T08:50:24;2.75;;;2.55;;
23628;SDS011;11991;57.150;-2.134;2023-09-07T08:52:52;3.17;;;2.58;;
23628;SDS011;11991;57.150;-2.134;2023-09-07T08:55:20;4.13;;;3.00;;
23628;SDS011;11991;57.150;-2.134;2023-09-07T08:57:48;3.22;;;2.92;;
23628;SDS011;11991;57.150;-2.134;2023-09-07T09:00:15;5.38;;;4.25;;
23628;SDS011;11991;57.150;-2.134;2023-09-07T09:02:45;3.63;;;3.28;;
23628;SDS011;11991;57.150;-2.134;2023-09-07T09:05:21;4.93;;;4.32;;
23628;SDS011;11991;57.150;-2.134;2023-09-07T09:07:49;3.53;;;2.80;;
23628;SDS011;11991;57.150;-2.134;2023-09-07T09:10:27;3.92;;;3.53;;
23628;SDS011;11991;57.150;-2.134;2023-09-07T09:12:55;4.82;;;3.75;;
23628;SDS011;11991;57.150;-2.134;2023-09-07T09:15:23;3.65;;;3.35;;
23628;SDS011;11991;57.150;-2.134;2023-09-07T09:17:50;3.42;;;3.08;;
23628;SDS011;11991;57.150;-2.134;2023-09-07T09:20:24;3.78;;;3.42;;
23628;SDS011;11991;57.150;-2.134;2023-09-07T09:22:52;4.70;;;3.58;;
23628;SDS011;11991;57.150;-2.134;2023-09-07T09:25:21;4.18;;;3.28;;
23628;SDS011;11991;57.150;-2.134;2023-09-07T09:27:48;4.65;;;3.72;;
23628;SDS011;11991;57.150;-2.134;2023-09-07T09:30:15;4.18;;;3.78;;
23628;SDS011;11991;57.150;-2.134;2023-09-07T09:32:43;3.75;;;3.20;;
23628;SDS011;11991;57.150;-2.134;2023-09-07T09:35:10;5.45;;;3.88;;
23628;SDS011;11991;57.150;-2.134;2023-09-07T09:37:44;3.90;;;3.53;;
23628;SDS011;11991;57.150;-2.134;2023-09-07T09:40:13;3.92;;;3.53;;
23628;SDS011;11991;57.150;-2.134;2023-09-07T09:42:44;3.55;;;3.22;;
23628;SDS011;11991;57.150;-2.134;2023-09-07T09:45:11;3.75;;;3.22;;
23628;SDS011;11991;57.150;-2.134;2023-09-07T09:47:41;4.35;;;3.28;;
23628;SDS011;11991;57.150;-2.134;2023-09-07T09:50:10;2.95;;;2.45;;
23628;SDS011;11991;57.150;-2.134;2023-09-07T09:52:38;4.05;;;2.92;;
23628;SDS011;11991;57.150;-2.134;2023-09-07T09:55:06;3.60;;;2.70;;
23628;SDS011;11991;57.150;-2.134;2023-09-07T09:57:35;3.50;;;2.72;;
23628;SDS011;11991;57.150;-2.134;2023-09-07T10:00:03;3.95;;;3.38;;
23628;SDS011;11991;57.150;-2.134;2023-09-07T10:03:02;2.85;;;2.65;;
23628;SDS011;11991;57.150;-2.134;2023-09-07T10:05:38;3.50;;;3.20;;
23628;SDS011;11991;57.150;-2.134;2023-09-07T10:08:09;3.53;;;3.08;;
23628;SDS011;11991;57.150;-2.134;2023-09-07T10:10:43;4.30;;;2.97;;
23628;SDS011;11991;57.150;-2.134;2023-09-07T10:13:13;3.58;;;3.28;;
23628;SDS011;11991;57.150;-2.134;2023-09-07T10:15:41;2.90;;;2.63;;
23628;SDS011;11991;57.150;-2.134;2023-09-07T10:18:09;3.92;;;2.97;;
23628;SDS011;11991;57.150;-2.134;2023-09-07T10:20:57;3.75;;;3.15;;
23628;SDS011;11991;57.150;-2.134;2023-09-07T10:23:44;3.38;;;3.08;;
23628;SDS011;11991;57.150;-2.134;2023-09-07T10:26:15;2.70;;;2.50;;
23628;SDS011;11991;57.150;-2.134;2023-09-07T10:28:44;2.80;;;2.50;;
23628;SDS011;11991;57.150;-2.134;2023-09-07T10:31:18;2.22;;;2.00;;
23628;SDS011;11991;57.150;-2.134;2023-09-07T10:33:46;4.93;;;3.50;;
23628;SDS011;11991;57.150;-2.134;2023-09-07T10:36:21;4.32;;;3.03;;
23628;SDS011;11991;57.150;-2.134;2023-09-07T10:38:54;3.00;;;2.63;;
23628;SDS011;11991;57.150;-2.134;2023-09-07T10:41:22;2.58;;;2.38;;
23628;SDS011;11991;57.150;-2.134;2023-09-07T10:43:52;4.00;;;2.75;;
23628;SDS011;11991;57.150;-2.134;2023-09-07T10:46:21;3.45;;;3.00;;
23628;SDS011;11991;57.150;-2.134;2023-09-07T10:48:50;3.65;;;2.70;;
23628;SDS011;11991;57.150;-2.134;2023-09-07T10:51:18;4.07;;;3.20;;
23628;SDS011;11991;57.150;-2.134;2023-09-07T10:53:46;3.13;;;2.65;;
23628;SDS011;11991;57.150;-2.134;2023-09-07T10:56:13;3.97;;;2.92;;
23628;SDS011;11991;57.150;-2.134;2023-09-07T10:58:41;3.85;;;2.83;;
23628;SDS011;11991;57.150;-2.134;2023-09-07T11:01:10;3.47;;;2.67;;
23628;SDS011;11991;57.150;-2.134;2023-09-07T11:03:38;3.45;;;2.83;;
23628;SDS011;11991;57.150;-2.134;2023-09-07T11:06:07;6.18;;;3.58;;
23628;SDS011;11991;57.150;-2.134;2023-09-07T11:08:37;2.50;;;2.30;;
23628;SDS011;11991;57.150;-2.134;2023-09-07T11:11:04;4.07;;;2.85;;
23628;SDS011;11991;57.150;-2.134;2023-09-07T11:13:32;3.72;;;2.67;;
23628;SDS011;11991;57.150;-2.134;2023-09-07T11:16:00;4.32;;;2.67;;
23628;SDS011;11991;57.150;-2.134;2023-09-07T11:18:28;3.53;;;2.88;;
23628;SDS011;11991;57.150;-2.134;2023-09-07T11:20:56;3.85;;;2.88;;
23628;SDS011;11991;57.150;-2.134;2023-09-07T11:23:23;2.58;;;2.33;;
23628;SDS011;11991;57.150;-2.134;2023-09-07T11:25:50;3.85;;;2.58;;
23628;SDS011;11991;57.150;-2.134;2023-09-07T11:28:19;3.58;;;2.70;;
23628;SDS011;11991;57.150;-2.134;2023-09-07T11:30:49;2.90;;;2.70;;
23628;SDS011;11991;57.150;-2.134;2023-09-07T11:33:18;3.08;;;2.78;;
23628;SDS011;11991;57.150;-2.134;2023-09-07T11:35:45;2.88;;;2.50;;
23628;SDS011;11991;57.150;-2.134;2023-09-07T11:38:15;3.13;;;2.72;;
23628;SDS011;11991;57.150;-2.134;2023-09-07T11:40:43;3.40;;;3.10;;
23628;SDS011;11991;57.150;-2.134;2023-09-07T11:43:15;5.13;;;4.00;;
23628;SDS011;11991;57.150;-2.134;2023-09-07T11:45:45;3.97;;;3.55;;
23628;SDS011;11991;57.150;-2.134;2023-09-07T11:48:13;8.80;;;5.70;;
23628;SDS011;11991;57.150;-2.134;2023-09-07T11:50:40;9.45;;;4.93;;
23628;SDS011;11991;57.150;-2.134;2023-09-07T11:53:07;4.63;;;3.92;;
23628;SDS011;11991;57.150;-2.134;2023-09-07T11:55:34;4.50;;;3.85;;
23628;SDS011;11991;57.150;-2.134;2023-09-07T11:58:03;4.82;;;3.33;;
23628;SDS011;11991;57.150;-2.134;2023-09-07T12:00:33;3.60;;;3.25;;
23628;SDS011;11991;57.150;-2.134;2023-09-07T12:03:00;3.72;;;3.38;;
23628;SDS011;11991;57.150;-2.134;2023-09-07T12:05:27;4.07;;;3.40;;
23628;SDS011;11991;57.150;-2.134;2023-09-07T12:07:55;4.28;;;3.88;;
23628;SDS011;11991;57.150;-2.134;2023-09-07T12:10:22;7.13;;;4.43;;
23628;SDS011;11991;57.150;-2.134;2023-09-07T12:12:49;5.38;;;4.15;;
23628;SDS011;11991;57.150;-2.134;2023-09-07T12:15:16;5.80;;;4.80;;
23628;SDS011;11991;57.150;-2.134;2023-09-07T12:17:43;4.18;;;3.42;;
23628;SDS011;11991;57.150;-2.134;2023-09-07T12:20:11;4.57;;;3.75;;
23628;SDS011;11991;57.150;-2.134;2023-09-07T12:22:40;7.15;;;4.75;;
23628;SDS011;11991;57.150;-2.134;2023-09-07T12:25:07;4.13;;;3.17;;
23628;SDS011;11991;57.150;-2.134;2023-09-07T12:27:41;3.92;;;3.50;;
23628;SDS011;11991;57.150;-2.134;2023-09-07T12:30:20;5.03;;;4.40;;
23628;SDS011;11991;57.150;-2.134;2023-09-07T12:32:50;3.13;;;2.83;;
23628;SDS011;11991;57.150;-2.134;2023-09-07T12:35:17;3.60;;;3.15;;
23628;SDS011;11991;57.150;-2.134;2023-09-07T12:37:46;4.20;;;2.60;;
23628;SDS011;11991;57.150;-2.134;2023-09-07T12:40:14;3.00;;;2.70;;
23628;SDS011;11991;57.150;-2.134;2023-09-07T12:42:42;3.40;;;2.70;;
23628;SDS011;11991;57.150;-2.134;2023-09-07T12:45:11;4.13;;;2.50;;
23628;SDS011;11991;57.150;-2.134;2023-09-07T12:47:39;3.50;;;2.55;;
23628;SDS011;11991;57.150;-2.134;2023-09-07T12:50:07;4.07;;;2.50;;
23628;SDS011;11991;57.150;-2.134;2023-09-07T12:52:34;3.28;;;2.38;;
23628;SDS011;11991;57.150;-2.134;2023-09-07T12:55:05;3.25;;;2.10;;
23628;SDS011;11991;57.150;-2.134;2023-09-07T12:57:33;2.83;;;1.92;;
23628;SDS011;11991;57.150;-2.134;2023-09-07T13:00:03;3.30;;;2.03;;
23628;SDS011;11991;57.150;-2.134;2023-09-07T13:02:32;3.42;;;2.20;;
23628;SDS011;11991;57.150;-2.134;2023-09-07T13:04:59;2.58;;;1.75;;
23628;SDS011;11991;57.150;-2.134;2023-09-07T13:07:26;3.30;;;2.10;;
23628;SDS011;11991;57.150;-2.134;2023-09-07T13:09:54;2.65;;;2.13;;
23628;SDS011;11991;57.150;-2.134;2023-09-07T13:12:21;3.08;;;2.10;;
23628;SDS011;11991;57.150;-2.134;2023-09-07T13:14:48;2.40;;;1.50;;
23628;SDS011;11991;57.150;-2.134;2023-09-07T13:17:16;3.13;;;1.75;;
23628;SDS011;11991;57.150;-2.134;2023-09-07T13:19:51;2.70;;;2.13;;
23628;SDS011;11991;57.150;-2.134;2023-09-07T13:22:18;3.22;;;2.13;;
23628;SDS011;11991;57.150;-2.134;2023-09-07T13:24:46;3.50;;;2.40;;
23628;SDS011;11991;57.150;-2.134;2023-09-07T13:27:13;3.67;;;2.15;;
23628;SDS011;11991;57.150;-2.134;2023-09-07T13:29:40;5.90;;;2.35;;
23628;SDS011;11991;57.150;-2.134;2023-09-07T13:32:07;2.83;;;2.30;;
23628;SDS011;11991;57.150;-2.134;2023-09-07T13:34:34;3.85;;;2.63;;
23628;SDS011;11991;57.150;-2.134;2023-09-07T13:37:01;5.05;;;3.03;;
23628;SDS011;11991;57.150;-2.134;2023-09-07T13:39:28;4.18;;;2.90;;
23628;SDS011;11991;57.150;-2.134;2023-09-07T13:41:55;3.13;;;2.80;;
23628;SDS011;11991;57.150;-2.134;2023-09-07T13:44:22;3.88;;;2.47;;
23628;SDS011;11991;57.150;-2.134;2023-09-07T13:46:49;3.20;;;2.90;;
23628;SDS011;11991;57.150;-2.134;2023-09-07T13:49:17;3.15;;;2.83;;
23628;SDS011;11991;57.150;-2.134;2023-09-07T13:51:45;2.45;;;2.20;;
23628;SDS011;11991;57.150;-2.134;2023-09-07T13:54:12;4.38;;;2.33;;
23628;SDS011;11991;57.150;-2.134;2023-09-07T13:56:39;2.42;;;2.22;;
23628;SDS011;11991;57.150;-2.134;2023-09-07T13:59:08;3.15;;;2.55;;
23628;SDS011;11991;57.150;-2.134;2023-09-07T14:01:35;2.83;;;2.20;;
23628;SDS011;11991;57.150;-2.134;2023-09-07T14:04:04;2.20;;;2.00;;
23628;SDS011;11991;57.150;-2.134;2023-09-07T14:06:31;2.95;;;2.08;;
23628;SDS011;11991;57.150;-2.134;2023-09-07T14:08:58;2.78;;;2.55;;
23628;SDS011;11991;57.150;-2.134;2023-09-07T14:11:25;4.50;;;2.85;;
23628;SDS011;11991;57.150;-2.134;2023-09-07T14:13:52;2.90;;;2.33;;
23628;SDS011;11991;57.150;-2.134;2023-09-07T14:16:21;3.70;;;2.83;;
23628;SDS011;11991;57.150;-2.134;2023-09-07T14:18:49;3.80;;;2.85;;
23628;SDS011;11991;57.150;-2.134;2023-09-07T14:21:17;5.13;;;3.97;;
23628;SDS011;11991;57.150;-2.134;2023-09-07T14:23:44;3.33;;;3.00;;
23628;SDS011;11991;57.150;-2.134;2023-09-07T14:26:12;3.22;;;2.78;;
23628;SDS011;11991;57.150;-2.134;2023-09-07T14:28:39;4.15;;;2.97;;
23628;SDS011;11991;57.150;-2.134;2023-09-07T14:31:07;2.85;;;2.47;;
23628;SDS011;11991;57.150;-2.134;2023-09-07T14:33:35;8.13;;;2.65;;
23628;SDS011;11991;57.150;-2.134;2023-09-07T14:36:08;2.45;;;2.03;;
23628;SDS011;11991;57.150;-2.134;2023-09-07T14:38:35;2.60;;;2.40;;
23628;SDS011;11991;57.150;-2.134;2023-09-07T14:41:08;2.95;;;2.65;;